createdAt,value
2022-10-23T00:00:02.495Z,15.09
2022-10-23T00:01:02.494Z,15.17
2022-10-23T00:02:02.582Z,15.16
2022-10-23T00:03:02.499Z,15.19
2022-10-23T00:04:02.501Z,15.20
2022-10-23T00:05:02.513Z,15.16
2022-10-23T00:06:02.489Z,15.20
2022-10-23T00:07:02.501Z,15.19
2022-10-23T00:08:02.485Z,15.14
2022-10-23T00:09:02.501Z,15.16
2022-10-23T00:10:02.522Z,15.09
2022-10-23T00:11:02.506Z,15.14
2022-10-23T00:12:02.501Z,15.03
2022-10-23T00:13:02.499Z,15.07
2022-10-23T00:14:02.489Z,15.03
2022-10-23T00:15:02.533Z,15.13
2022-10-23T00:16:02.505Z,15.07
2022-10-23T00:17:02.492Z,15.03
2022-10-23T00:18:02.500Z,15.01
2022-10-23T00:19:02.501Z,14.96
2022-10-23T00:20:02.523Z,15.02
2022-10-23T00:21:02.520Z,14.96
2022-10-23T00:22:02.495Z,14.98
2022-10-23T00:23:02.502Z,14.95
2022-10-23T00:24:02.545Z,14.96
2022-10-23T00:25:02.504Z,14.91
2022-10-23T00:26:02.496Z,14.94
2022-10-23T00:27:02.513Z,14.96
2022-10-23T00:28:02.502Z,14.94
2022-10-23T00:29:02.506Z,14.94
2022-10-23T00:30:02.504Z,14.91
2022-10-23T00:31:02.507Z,14.94
2022-10-23T00:32:02.532Z,14.91
2022-10-23T00:33:02.511Z,14.88
2022-10-23T00:34:02.510Z,14.98
2022-10-23T00:35:02.500Z,14.92
2022-10-23T00:36:02.501Z,14.92
2022-10-23T00:37:02.511Z,14.81
2022-10-23T00:38:02.526Z,14.84
2022-10-23T00:39:02.510Z,14.75
2022-10-23T00:40:02.514Z,14.80
2022-10-23T00:41:02.506Z,14.73
2022-10-23T00:42:02.514Z,14.80
2022-10-23T00:43:02.516Z,14.81
2022-10-23T00:44:02.529Z,14.84
2022-10-23T00:45:02.524Z,14.94
2022-10-23T00:46:02.513Z,14.84
2022-10-23T00:47:02.512Z,14.81
2022-10-23T00:48:02.514Z,14.80
2022-10-23T00:49:02.590Z,14.86
2022-10-23T00:50:02.515Z,14.84
2022-10-23T00:51:02.505Z,14.89
2022-10-23T00:52:02.507Z,14.81
2022-10-23T00:53:02.507Z,14.86
2022-10-23T00:54:23.016Z,14.83
2022-10-23T00:55:02.512Z,14.84
2022-10-23T00:56:02.525Z,14.81
2022-10-23T00:57:02.572Z,14.83
2022-10-23T00:58:02.520Z,14.77
2022-10-23T00:59:02.527Z,14.86
2022-10-23T01:00:02.509Z,14.89
2022-10-23T01:01:02.585Z,14.86
2022-10-23T01:02:02.711Z,14.92
2022-10-23T01:03:02.515Z,14.86
2022-10-23T01:04:02.520Z,14.86
2022-10-23T01:05:02.556Z,14.95
2022-10-23T01:06:02.513Z,14.83
2022-10-23T01:07:02.522Z,14.83
2022-10-23T01:08:02.522Z,14.83
2022-10-23T01:09:02.521Z,14.92
2022-10-23T01:10:02.542Z,14.81
2022-10-23T01:11:02.529Z,14.86
2022-10-23T01:12:02.516Z,14.81
2022-10-23T01:13:02.514Z,14.89
2022-10-23T01:15:02.525Z,14.86
2022-10-23T01:16:02.549Z,14.86
2022-10-23T01:17:02.523Z,14.86
2022-10-23T01:18:02.526Z,14.86
2022-10-23T01:19:02.526Z,14.88
2022-10-23T01:20:02.519Z,14.81
2022-10-23T01:21:02.548Z,14.86
2022-10-23T01:22:02.527Z,14.89
2022-10-23T01:23:02.531Z,14.84
2022-10-23T01:24:02.528Z,14.86
2022-10-23T01:25:02.542Z,14.84
2022-10-23T01:26:02.530Z,14.83
2022-10-23T01:27:02.535Z,14.86
2022-10-23T01:28:02.519Z,14.83
2022-10-23T01:29:02.517Z,14.89
2022-10-23T01:30:02.537Z,14.75
2022-10-23T01:31:02.608Z,14.81
2022-10-23T01:32:02.539Z,14.70
2022-10-23T01:33:02.515Z,14.69
2022-10-23T01:34:02.520Z,14.75
2022-10-23T01:35:02.525Z,14.78
2022-10-23T01:36:02.521Z,14.72
2022-10-23T01:37:02.540Z,14.69
2022-10-23T01:38:02.557Z,14.73
2022-10-23T01:40:02.533Z,14.75
2022-10-23T01:41:02.526Z,14.81
2022-10-23T01:42:02.526Z,14.78
2022-10-23T01:43:02.520Z,14.83
2022-10-23T01:44:02.546Z,14.94
2022-10-23T01:45:02.532Z,14.89
2022-10-23T01:46:02.533Z,14.86
2022-10-23T01:47:02.543Z,14.84
2022-10-23T01:48:02.547Z,14.81
2022-10-23T01:49:02.535Z,14.89
2022-10-23T01:50:02.523Z,14.88
2022-10-23T01:51:02.543Z,14.86
2022-10-23T01:52:02.523Z,14.89
2022-10-23T01:53:02.535Z,14.92
2022-10-23T01:54:02.551Z,14.83
2022-10-23T01:55:02.529Z,14.94
2022-10-23T01:56:02.531Z,14.92
2022-10-23T01:57:02.552Z,14.92
2022-10-23T01:58:02.533Z,14.92
2022-10-23T01:59:02.545Z,14.86
2022-10-23T02:00:02.551Z,14.84
2022-10-23T02:01:02.587Z,14.92
2022-10-23T02:02:02.631Z,14.92
2022-10-23T02:03:02.544Z,14.96
2022-10-23T02:04:02.534Z,14.98
2022-10-23T02:05:02.546Z,14.95
2022-10-23T02:06:02.538Z,14.99
2022-10-23T02:07:02.555Z,14.95
2022-10-23T02:08:02.539Z,14.99
2022-10-23T02:09:02.557Z,14.99
2022-10-23T02:10:02.556Z,14.99
2022-10-23T02:11:02.549Z,14.91
2022-10-23T02:12:02.543Z,14.95
2022-10-23T02:13:02.530Z,14.92
2022-10-23T02:14:02.540Z,14.86
2022-10-23T02:15:02.535Z,14.92
2022-10-23T02:16:02.557Z,14.84
2022-10-23T02:17:02.557Z,14.86
2022-10-23T02:18:02.543Z,14.88
2022-10-23T02:19:02.542Z,14.92
2022-10-23T02:20:02.546Z,14.92
2022-10-23T02:21:02.550Z,14.91
2022-10-23T02:22:02.554Z,14.91
2022-10-23T02:23:02.552Z,14.92
2022-10-23T02:24:02.537Z,14.92
2022-10-23T02:25:02.543Z,14.91
2022-10-23T02:26:02.534Z,14.98
2022-10-23T02:27:02.561Z,14.83
2022-10-23T02:28:02.538Z,14.86
2022-10-23T02:29:02.622Z,14.95
2022-10-23T02:30:02.556Z,14.84
2022-10-23T02:31:02.545Z,14.86
2022-10-23T02:32:02.565Z,14.86
2022-10-23T02:33:02.551Z,14.84
2022-10-23T02:34:02.540Z,14.83
2022-10-23T02:35:02.551Z,14.86
2022-10-23T02:36:02.551Z,14.84
2022-10-23T02:37:02.549Z,14.84
2022-10-23T02:38:02.560Z,14.91
2022-10-23T02:39:02.550Z,14.84
2022-10-23T02:40:02.549Z,14.86
2022-10-23T02:41:02.540Z,14.84
2022-10-23T02:42:02.550Z,14.83
2022-10-23T02:43:02.553Z,14.88
2022-10-23T02:44:02.564Z,14.84
2022-10-23T02:45:02.550Z,14.81
2022-10-23T02:46:02.541Z,14.86
2022-10-23T02:47:02.578Z,14.80
2022-10-23T02:48:02.567Z,14.86
2022-10-23T02:49:02.540Z,14.84
2022-10-23T02:50:02.553Z,14.86
2022-10-23T02:51:02.545Z,14.84
2022-10-23T02:52:02.555Z,14.81
2022-10-23T02:53:02.565Z,14.84
2022-10-23T02:54:02.559Z,14.83
2022-10-23T02:55:02.546Z,14.84
2022-10-23T02:56:02.548Z,14.86
2022-10-23T02:57:02.538Z,14.88
2022-10-23T02:58:02.553Z,14.83
2022-10-23T02:59:02.562Z,14.86
2022-10-23T03:00:02.558Z,14.84
2022-10-23T03:01:02.586Z,14.83
2022-10-23T03:02:02.703Z,14.80
2022-10-23T03:03:02.548Z,14.86
2022-10-23T03:04:02.568Z,14.77
2022-10-23T03:05:02.556Z,14.75
2022-10-23T03:06:02.560Z,14.73
2022-10-23T03:07:02.554Z,14.80
2022-10-23T03:08:02.565Z,14.75
2022-10-23T03:09:02.563Z,14.69
2022-10-23T03:10:02.578Z,14.70
2022-10-23T03:11:03.118Z,14.80
2022-10-23T03:12:02.562Z,14.77
2022-10-23T03:13:02.570Z,14.75
2022-10-23T03:14:02.558Z,14.77
2022-10-23T03:15:02.577Z,14.68
2022-10-23T03:16:02.575Z,14.68
2022-10-23T03:17:02.550Z,14.62
2022-10-23T03:18:02.564Z,14.57
2022-10-23T03:19:02.612Z,14.60
2022-10-23T03:20:02.562Z,14.60
2022-10-23T03:21:02.560Z,14.62
2022-10-23T03:22:02.560Z,14.64
2022-10-23T03:23:02.549Z,14.60
2022-10-23T03:24:02.569Z,14.52
2022-10-23T03:25:02.557Z,14.50
2022-10-23T03:26:02.572Z,14.55
2022-10-23T03:27:02.567Z,14.52
2022-10-23T03:28:02.560Z,14.43
2022-10-23T03:29:02.586Z,14.40
2022-10-23T03:30:02.549Z,14.43
2022-10-23T03:31:02.546Z,14.47
2022-10-23T03:32:02.554Z,14.43
2022-10-23T03:33:02.568Z,14.40
2022-10-23T03:34:04.135Z,14.33
2022-10-23T03:35:02.567Z,14.36
2022-10-23T03:36:02.550Z,14.32
2022-10-23T03:37:02.565Z,14.27
2022-10-23T03:38:02.556Z,14.35
2022-10-23T03:39:02.557Z,14.33
2022-10-23T03:40:02.553Z,14.32
2022-10-23T03:41:02.576Z,14.29
2022-10-23T03:42:02.561Z,14.25
2022-10-23T03:43:02.560Z,14.27
2022-10-23T03:44:02.571Z,14.29
2022-10-23T03:45:02.573Z,14.20
2022-10-23T03:46:02.563Z,14.22
2022-10-23T03:47:02.554Z,14.27
2022-10-23T03:48:02.569Z,14.20
2022-10-23T03:49:02.574Z,14.17
2022-10-23T03:50:02.557Z,14.17
2022-10-23T03:51:02.583Z,14.10
2022-10-23T03:52:02.569Z,14.12
2022-10-23T03:53:02.556Z,14.15
2022-10-23T03:54:03.143Z,14.12
2022-10-23T03:55:02.567Z,14.17
2022-10-23T03:56:02.554Z,14.15
2022-10-23T03:57:02.614Z,14.02
2022-10-23T03:58:02.562Z,14.17
2022-10-23T03:59:02.565Z,14.02
2022-10-23T04:00:02.561Z,14.03
2022-10-23T04:01:02.597Z,14.04
2022-10-23T04:02:02.707Z,13.99
2022-10-23T04:03:02.576Z,14.03
2022-10-23T04:04:02.646Z,14.03
2022-10-23T04:05:02.586Z,14.00
2022-10-23T04:06:02.574Z,13.87
2022-10-23T04:07:02.559Z,13.91
2022-10-23T04:08:02.563Z,13.85
2022-10-23T04:09:02.601Z,13.82
2022-10-23T04:10:02.556Z,13.87
2022-10-23T04:11:02.581Z,13.92
2022-10-23T04:12:02.646Z,13.85
2022-10-23T04:13:02.568Z,13.82
2022-10-23T04:14:12.473Z,13.82
2022-10-23T04:15:03.361Z,13.79
2022-10-23T04:16:02.600Z,13.77
2022-10-23T04:17:02.562Z,13.84
2022-10-23T04:18:02.554Z,13.78
2022-10-23T04:19:02.581Z,13.71
2022-10-23T04:20:02.558Z,13.73
2022-10-23T04:21:02.595Z,13.71
2022-10-23T04:22:02.575Z,13.71
2022-10-23T04:23:02.560Z,13.75
2022-10-23T04:24:02.570Z,13.75
2022-10-23T04:25:02.559Z,13.79
2022-10-23T04:26:02.555Z,13.70
2022-10-23T04:27:02.578Z,13.66
2022-10-23T04:28:02.561Z,13.64
2022-10-23T04:29:02.549Z,13.59
2022-10-23T04:30:02.558Z,13.59
2022-10-23T04:31:02.558Z,13.63
2022-10-23T04:32:02.554Z,13.59
2022-10-23T04:33:02.571Z,13.64
2022-10-23T04:34:02.592Z,13.59
2022-10-23T04:35:02.570Z,13.55
2022-10-23T04:36:02.560Z,13.62
2022-10-23T04:37:02.557Z,13.60
2022-10-23T04:38:02.563Z,13.49
2022-10-23T04:39:02.563Z,13.45
2022-10-23T04:40:02.547Z,13.49
2022-10-23T04:41:02.577Z,13.54
2022-10-23T04:42:02.557Z,13.46
2022-10-23T04:43:02.551Z,13.51
2022-10-23T04:44:02.581Z,13.44
2022-10-23T04:45:02.572Z,13.45
2022-10-23T04:46:02.569Z,13.39
2022-10-23T04:47:02.560Z,13.48
2022-10-23T04:48:02.551Z,13.32
2022-10-23T04:49:02.561Z,13.36
2022-10-23T04:50:02.592Z,13.33
2022-10-23T04:51:02.575Z,13.39
2022-10-23T04:52:02.589Z,13.39
2022-10-23T04:53:02.552Z,13.41
2022-10-23T04:54:02.555Z,13.39
2022-10-23T04:55:02.563Z,13.39
2022-10-23T04:56:02.573Z,13.26
2022-10-23T04:57:02.557Z,13.39
2022-10-23T04:58:02.558Z,13.32
2022-10-23T04:59:02.601Z,13.23
2022-10-23T05:00:02.559Z,13.29
2022-10-23T05:01:02.680Z,13.30
2022-10-23T05:02:02.554Z,13.28
2022-10-23T05:03:02.571Z,13.25
2022-10-23T05:04:02.557Z,13.39
2022-10-23T05:05:02.541Z,13.25
2022-10-23T05:06:02.573Z,13.28
2022-10-23T05:07:02.555Z,13.33
2022-10-23T05:08:02.557Z,13.26
2022-10-23T05:09:02.550Z,13.20
2022-10-23T05:10:02.544Z,13.28
2022-10-23T05:11:02.577Z,13.28
2022-10-23T05:12:02.546Z,13.32
2022-10-23T05:13:02.551Z,13.22
2022-10-23T05:14:02.582Z,13.25
2022-10-23T05:15:02.537Z,13.33
2022-10-23T05:16:02.544Z,13.26
2022-10-23T05:17:02.562Z,13.26
2022-10-23T05:18:02.543Z,13.29
2022-10-23T05:19:02.573Z,13.26
2022-10-23T05:20:02.548Z,13.23
2022-10-23T05:21:02.545Z,13.25
2022-10-23T05:22:02.593Z,13.28
2022-10-23T05:23:02.559Z,13.30
2022-10-23T05:24:02.565Z,13.25
2022-10-23T05:25:02.561Z,13.19
2022-10-23T05:26:02.538Z,13.17
2022-10-23T05:27:02.540Z,13.23
2022-10-23T05:28:02.547Z,13.17
2022-10-23T05:29:02.553Z,13.23
2022-10-23T05:30:02.551Z,13.14
2022-10-23T05:31:02.568Z,13.17
2022-10-23T05:32:02.540Z,13.29
2022-10-23T05:33:02.535Z,13.17
2022-10-23T05:34:02.537Z,13.25
2022-10-23T05:35:02.576Z,13.20
2022-10-23T05:36:02.566Z,13.17
2022-10-23T05:37:02.554Z,13.22
2022-10-23T05:38:02.563Z,13.20
2022-10-23T05:39:02.533Z,13.12
2022-10-23T05:40:02.552Z,13.11
2022-10-23T05:41:02.542Z,13.07
2022-10-23T05:42:02.575Z,13.10
2022-10-23T05:43:02.548Z,13.14
2022-10-23T05:44:02.564Z,13.10
2022-10-23T05:45:02.546Z,13.10
2022-10-23T05:46:02.539Z,13.05
2022-10-23T05:47:02.561Z,13.22
2022-10-23T05:48:10.822Z,13.12
2022-10-23T05:49:02.535Z,13.10
2022-10-23T05:50:02.550Z,13.07
2022-10-23T05:51:02.533Z,13.11
2022-10-23T05:52:02.528Z,13.14
2022-10-23T05:53:02.553Z,13.10
2022-10-23T05:54:02.535Z,13.12
2022-10-23T05:55:02.538Z,13.10
2022-10-23T05:56:02.530Z,13.08
2022-10-23T05:57:02.558Z,13.11
2022-10-23T05:58:02.531Z,13.08
2022-10-23T05:59:02.534Z,13.14
2022-10-23T06:00:02.532Z,13.12
2022-10-23T06:01:02.592Z,13.12
2022-10-23T06:02:02.664Z,13.08
2022-10-23T06:03:02.529Z,13.11
2022-10-23T06:04:02.513Z,13.07
2022-10-23T06:05:02.621Z,13.12
2022-10-23T06:06:02.552Z,13.14
2022-10-23T06:07:02.527Z,13.20
2022-10-23T06:08:02.517Z,13.17
2022-10-23T06:09:02.544Z,13.17
2022-10-23T06:10:02.530Z,13.17
2022-10-23T06:11:02.529Z,13.10
2022-10-23T06:12:02.528Z,13.10
2022-10-23T06:13:02.518Z,13.10
2022-10-23T06:14:02.542Z,13.20
2022-10-23T06:15:02.528Z,13.07
2022-10-23T06:16:02.572Z,13.11
2022-10-23T06:17:02.515Z,13.11
2022-10-23T06:18:02.512Z,13.05
2022-10-23T06:19:02.520Z,13.04
2022-10-23T06:20:02.566Z,13.04
2022-10-23T06:21:02.507Z,13.04
2022-10-23T06:22:02.520Z,13.08
2022-10-23T06:23:02.529Z,12.93
2022-10-23T06:24:02.521Z,13.00
2022-10-23T06:25:02.513Z,12.97
2022-10-23T06:26:02.525Z,13.00
2022-10-23T06:27:02.548Z,12.92
2022-10-23T06:28:02.607Z,12.92
2022-10-23T06:29:02.554Z,12.97
2022-10-23T06:30:02.516Z,12.97
2022-10-23T06:31:02.518Z,12.89
2022-10-23T06:32:02.521Z,12.92
2022-10-23T06:33:04.612Z,12.92
2022-10-23T06:34:02.527Z,12.95
2022-10-23T06:35:02.511Z,13.03
2022-10-23T06:36:02.659Z,13.03
2022-10-23T06:37:02.556Z,13.03
2022-10-23T06:38:02.533Z,13.00
2022-10-23T06:39:02.517Z,13.01
2022-10-23T06:40:02.514Z,13.05
2022-10-23T06:41:02.516Z,12.97
2022-10-23T06:42:02.513Z,13.01
2022-10-23T06:43:02.517Z,12.97
2022-10-23T06:44:02.513Z,13.05
2022-10-23T06:45:06.263Z,13.00
2022-10-23T06:46:02.503Z,13.07
2022-10-23T06:47:02.508Z,13.01
2022-10-23T06:48:02.500Z,13.05
2022-10-23T06:49:02.527Z,12.95
2022-10-23T06:50:02.506Z,12.92
2022-10-23T06:51:02.514Z,12.93
2022-10-23T06:52:02.512Z,12.92
2022-10-23T06:53:02.536Z,12.93
2022-10-23T06:54:02.512Z,12.90
2022-10-23T06:55:02.507Z,12.90
2022-10-23T06:56:02.499Z,12.97
2022-10-23T06:57:02.495Z,13.08
2022-10-23T06:58:02.502Z,13.10
2022-10-23T06:59:02.514Z,13.14
2022-10-23T07:00:02.503Z,13.10
2022-10-23T07:01:02.721Z,13.25
2022-10-23T07:02:02.497Z,13.26
2022-10-23T07:03:02.490Z,13.29
2022-10-23T07:04:02.499Z,13.30
2022-10-23T07:05:02.514Z,13.33
2022-10-23T07:06:02.488Z,13.44
2022-10-23T07:07:02.508Z,13.39
2022-10-23T07:08:02.496Z,13.39
2022-10-23T07:09:02.516Z,13.48
2022-10-23T07:10:02.573Z,13.52
2022-10-23T07:11:02.518Z,13.46
2022-10-23T07:12:02.484Z,13.52
2022-10-23T07:13:02.495Z,13.54
2022-10-23T07:14:02.494Z,13.62
2022-10-23T07:15:02.500Z,13.64
2022-10-23T07:16:02.481Z,13.62
2022-10-23T07:17:02.498Z,13.66
2022-10-23T07:18:02.493Z,13.73
2022-10-23T07:19:02.504Z,13.87
2022-10-23T07:20:02.484Z,13.99
2022-10-23T07:21:02.512Z,14.03
2022-10-23T07:22:02.494Z,14.14
2022-10-23T07:23:02.499Z,14.17
2022-10-23T07:24:02.499Z,14.17
2022-10-23T07:25:02.488Z,14.12
2022-10-23T07:26:02.513Z,14.20
2022-10-23T07:27:12.016Z,14.14
2022-10-23T07:28:10.779Z,14.15
2022-10-23T07:29:10.801Z,14.12
2022-10-23T07:30:10.831Z,14.22
2022-10-23T07:31:10.032Z,14.25
2022-10-23T07:32:10.862Z,14.45
2022-10-23T07:33:10.877Z,14.52
2022-10-23T07:34:10.893Z,14.61
2022-10-23T07:36:10.232Z,14.77
2022-10-23T07:37:11.160Z,14.86
2022-10-23T07:38:12.196Z,14.96
2022-10-23T07:39:16.338Z,15.03
2022-10-23T07:40:13.414Z,15.07
2022-10-23T07:41:13.134Z,15.16
2022-10-23T07:42:11.158Z,15.21
2022-10-23T07:43:11.770Z,15.23
2022-10-23T07:44:14.326Z,15.49
2022-10-23T07:45:10.727Z,15.54
2022-10-23T07:46:10.711Z,15.69
2022-10-23T07:47:10.023Z,15.75
2022-10-23T07:48:10.004Z,15.80
2022-10-23T07:49:10.767Z,15.84
2022-10-23T07:50:10.803Z,15.94
2022-10-23T07:51:12.286Z,16.00
2022-10-23T07:52:10.929Z,16.07
2022-10-23T07:53:02.493Z,16.11
2022-10-23T07:54:02.459Z,16.11
2022-10-23T07:55:02.469Z,16.05
2022-10-23T07:56:02.479Z,16.09
2022-10-23T07:57:02.447Z,16.27
2022-10-23T07:58:02.452Z,16.46
2022-10-23T07:59:02.468Z,16.52
2022-10-23T08:00:02.490Z,16.57
2022-10-23T08:01:02.532Z,16.58
2022-10-23T08:02:02.521Z,16.63
2022-10-23T08:03:02.461Z,16.56
2022-10-23T08:04:02.466Z,16.53
2022-10-23T08:05:02.504Z,16.61
2022-10-23T08:06:03.341Z,16.67
2022-10-23T08:07:02.446Z,16.60
2022-10-23T08:08:02.449Z,16.75
2022-10-23T08:09:05.482Z,16.76
2022-10-23T08:10:02.488Z,16.61
2022-10-23T08:11:02.473Z,16.66
2022-10-23T08:12:02.451Z,16.60
2022-10-23T08:13:02.452Z,16.78
2022-10-23T08:14:02.514Z,16.85
2022-10-23T08:15:02.500Z,16.88
2022-10-23T08:16:02.486Z,17.03
2022-10-23T08:18:02.468Z,16.91
2022-10-23T08:19:02.461Z,16.81
2022-10-23T08:20:02.480Z,16.85
2022-10-23T08:21:02.487Z,16.94
2022-10-23T08:22:02.468Z,16.91
2022-10-23T08:23:02.470Z,16.82
2022-10-23T08:24:02.460Z,16.82
2022-10-23T08:25:02.461Z,16.93
2022-10-23T08:26:02.463Z,16.86
2022-10-23T08:27:02.484Z,16.93
2022-10-23T08:28:05.526Z,16.97
2022-10-23T08:29:02.470Z,16.93
2022-10-23T08:30:02.478Z,16.85
2022-10-23T08:31:02.471Z,17.03
2022-10-23T08:32:02.501Z,16.88
2022-10-23T08:33:02.518Z,17.03
2022-10-23T08:34:02.488Z,17.01
2022-10-23T08:35:02.483Z,17.00
2022-10-23T08:36:02.557Z,17.01
2022-10-23T08:37:02.509Z,17.01
2022-10-23T08:38:02.739Z,16.98
2022-10-23T08:39:02.482Z,17.01
2022-10-23T08:40:02.591Z,16.83
2022-10-23T08:41:02.489Z,16.85
2022-10-23T08:42:02.525Z,16.86
2022-10-23T08:43:02.487Z,16.79
2022-10-23T08:44:02.505Z,16.81
2022-10-23T08:45:02.498Z,16.85
2022-10-23T08:46:04.174Z,16.94
2022-10-23T08:47:02.507Z,16.91
2022-10-23T08:48:02.510Z,17.06
2022-10-23T08:49:02.523Z,17.06
2022-10-23T08:50:02.508Z,16.91
2022-10-23T08:51:02.509Z,17.06
2022-10-23T08:52:02.505Z,17.00
2022-10-23T08:53:02.505Z,17.00
2022-10-23T08:54:02.535Z,16.98
2022-10-23T08:55:02.539Z,17.01
2022-10-23T08:56:02.519Z,16.93
2022-10-23T08:57:02.522Z,16.85
2022-10-23T08:58:02.506Z,16.88
2022-10-23T08:59:02.574Z,16.82
2022-10-23T09:00:02.602Z,16.81
2022-10-23T09:01:02.623Z,16.93
2022-10-23T09:02:02.644Z,16.97
2022-10-23T09:03:02.549Z,17.04
2022-10-23T09:04:02.522Z,17.16
2022-10-23T09:05:02.557Z,17.18
2022-10-23T09:06:02.527Z,17.21
2022-10-23T09:07:02.560Z,17.31
2022-10-23T09:08:02.541Z,17.33
2022-10-23T09:09:02.544Z,17.52
2022-10-23T09:10:02.515Z,17.52
2022-10-23T09:11:02.518Z,17.56
2022-10-23T09:12:02.525Z,17.62
2022-10-23T09:13:02.526Z,17.46
2022-10-23T09:14:02.546Z,17.38
2022-10-23T09:15:02.523Z,17.43
2022-10-23T09:16:02.527Z,17.40
2022-10-23T09:17:02.580Z,17.43
2022-10-23T09:18:02.540Z,17.46
2022-10-23T09:19:02.554Z,17.52
2022-10-23T09:20:02.534Z,17.51
2022-10-23T09:21:02.532Z,17.43
2022-10-23T09:22:02.538Z,17.44
2022-10-23T09:23:02.551Z,17.43
2022-10-23T09:24:02.538Z,17.40
2022-10-23T09:25:02.563Z,17.31
2022-10-23T09:26:02.565Z,17.25
2022-10-23T09:27:02.545Z,17.34
2022-10-23T09:28:05.300Z,17.28
2022-10-23T09:29:02.579Z,17.33
2022-10-23T09:30:02.544Z,17.26
2022-10-23T09:31:02.584Z,17.33
2022-10-23T09:32:02.589Z,17.36
2022-10-23T09:33:02.572Z,17.49
2022-10-23T09:34:02.550Z,17.55
2022-10-23T09:35:02.565Z,17.55
2022-10-23T09:36:02.600Z,17.58
2022-10-23T09:37:02.558Z,17.52
2022-10-23T09:38:02.572Z,17.62
2022-10-23T09:39:02.573Z,17.62
2022-10-23T09:40:02.592Z,17.56
2022-10-23T09:41:02.610Z,17.70
2022-10-23T09:42:02.583Z,17.70
2022-10-23T09:43:02.575Z,17.70
2022-10-23T09:44:02.575Z,17.74
2022-10-23T09:45:02.594Z,17.84
2022-10-23T09:46:02.593Z,17.90
2022-10-23T09:47:02.597Z,18.00
2022-10-23T09:48:02.591Z,17.97
2022-10-23T09:49:05.010Z,17.90
2022-10-23T09:50:02.609Z,18.15
2022-10-23T09:51:02.603Z,18.03
2022-10-23T09:52:02.624Z,18.20
2022-10-23T09:53:02.601Z,18.17
2022-10-23T09:54:02.591Z,18.26
2022-10-23T09:55:02.610Z,18.29
2022-10-23T09:56:02.608Z,18.25
2022-10-23T09:57:02.615Z,18.29
2022-10-23T09:58:02.592Z,18.41
2022-10-23T09:59:02.603Z,18.41
2022-10-23T10:00:02.601Z,18.39
2022-10-23T10:01:02.721Z,18.41
2022-10-23T10:02:02.691Z,18.44
2022-10-23T10:03:02.614Z,18.45
2022-10-23T10:04:02.610Z,18.45
2022-10-23T10:05:02.618Z,18.57
2022-10-23T10:06:02.610Z,18.69
2022-10-23T10:07:02.635Z,18.69
2022-10-23T10:08:02.623Z,18.84
2022-10-23T10:09:02.610Z,18.82
2022-10-23T10:10:02.627Z,18.91
2022-10-23T10:11:02.626Z,18.98
2022-10-23T10:12:02.633Z,19.07
2022-10-23T10:13:02.649Z,19.25
2022-10-23T10:14:02.650Z,19.26
2022-10-23T10:15:10.913Z,19.32
2022-10-23T10:16:02.644Z,19.44
2022-10-23T10:17:02.660Z,19.47
2022-10-23T10:18:02.655Z,19.56
2022-10-23T10:19:02.648Z,19.68
2022-10-23T10:20:05.398Z,19.86
2022-10-23T10:21:02.643Z,19.87
2022-10-23T10:22:02.664Z,20.02
2022-10-23T10:23:02.664Z,20.03
2022-10-23T10:24:02.643Z,20.11
2022-10-23T10:25:02.654Z,20.21
2022-10-23T10:26:02.651Z,20.16
2022-10-23T10:27:02.655Z,20.36
2022-10-23T10:28:02.668Z,20.43
2022-10-23T10:29:02.688Z,20.59
2022-10-23T10:30:02.698Z,20.82
2022-10-23T10:31:02.681Z,20.99
2022-10-23T10:32:02.692Z,21.17
2022-10-23T10:33:02.674Z,21.07
2022-10-23T10:34:02.694Z,21.17
2022-10-23T10:35:02.702Z,21.13
2022-10-23T10:36:02.714Z,20.94
2022-10-23T10:37:02.711Z,20.97
2022-10-23T10:38:02.701Z,20.79
2022-10-23T10:39:02.712Z,20.87
2022-10-23T10:40:02.717Z,20.70
2022-10-23T10:41:02.721Z,20.61
2022-10-23T10:42:02.728Z,20.58
2022-10-23T10:43:02.735Z,20.64
2022-10-23T10:44:02.742Z,20.62
2022-10-23T10:45:02.727Z,20.52
2022-10-23T10:46:02.732Z,20.43
2022-10-23T10:47:02.755Z,20.38
2022-10-23T10:48:02.752Z,20.36
2022-10-23T10:49:02.755Z,20.38
2022-10-23T10:50:02.756Z,20.47
2022-10-23T10:51:02.766Z,20.58
2022-10-23T10:52:02.769Z,20.61
2022-10-23T10:53:02.775Z,20.79
2022-10-23T10:54:02.763Z,20.85
2022-10-23T10:55:02.768Z,20.85
2022-10-23T10:56:02.790Z,20.70
2022-10-23T10:57:02.783Z,20.72
2022-10-23T10:58:02.806Z,20.74
2022-10-23T10:59:02.771Z,20.82
2022-10-23T11:00:02.784Z,20.91
2022-10-23T11:01:02.886Z,20.99
2022-10-23T11:02:02.904Z,21.22
2022-10-23T11:03:02.807Z,21.32
2022-10-23T11:04:02.789Z,21.42
2022-10-23T11:05:02.816Z,21.65
2022-10-23T11:06:02.825Z,21.59
2022-10-23T11:07:02.804Z,21.61
2022-10-23T11:08:02.820Z,21.71
2022-10-23T11:09:19.442Z,21.59
2022-10-23T11:10:02.822Z,21.69
2022-10-23T11:11:02.852Z,21.68
2022-10-23T11:12:02.847Z,21.47
2022-10-23T11:13:02.832Z,21.42
2022-10-23T11:14:02.850Z,21.43
2022-10-23T11:15:02.871Z,21.25
2022-10-23T11:16:02.848Z,21.17
2022-10-23T11:17:02.850Z,21.10
2022-10-23T11:18:02.857Z,21.07
2022-10-23T11:19:02.865Z,20.94
2022-10-23T11:20:02.870Z,20.98
2022-10-23T11:21:02.879Z,20.91
2022-10-23T11:22:02.868Z,20.97
2022-10-23T11:23:02.898Z,20.89
2022-10-23T11:24:02.955Z,20.89
2022-10-23T11:25:02.909Z,20.98
2022-10-23T11:26:02.886Z,21.09
2022-10-23T11:27:02.911Z,21.09
2022-10-23T11:28:05.242Z,21.21
2022-10-23T11:29:02.917Z,21.16
2022-10-23T11:30:02.899Z,21.10
2022-10-23T11:31:02.900Z,21.16
2022-10-23T11:32:02.909Z,21.07
2022-10-23T11:33:02.933Z,21.13
2022-10-23T11:34:02.924Z,21.04
2022-10-23T11:35:02.912Z,21.01
2022-10-23T11:36:02.994Z,20.99
2022-10-23T11:37:02.929Z,20.92
2022-10-23T11:38:02.937Z,21.04
2022-10-23T11:39:02.926Z,20.98
2022-10-23T11:40:02.940Z,21.01
2022-10-23T11:41:02.973Z,20.98
2022-10-23T11:42:02.946Z,21.09
2022-10-23T11:43:02.950Z,21.16
2022-10-23T11:44:02.980Z,21.24
2022-10-23T11:45:02.959Z,21.32
2022-10-23T11:46:02.968Z,21.29
2022-10-23T11:47:02.961Z,21.34
2022-10-23T11:48:02.949Z,21.38
2022-10-23T11:49:03.040Z,21.42
2022-10-23T11:50:02.979Z,21.37
2022-10-23T11:51:05.145Z,21.47
2022-10-23T11:52:02.988Z,21.43
2022-10-23T11:53:13.765Z,21.42
2022-10-23T11:54:03.005Z,21.42
2022-10-23T11:55:02.977Z,21.53
2022-10-23T11:56:02.990Z,21.65
2022-10-23T11:57:03.025Z,21.68
2022-10-23T11:58:02.988Z,21.67
2022-10-23T12:00:37.481Z,21.56
2022-10-23T12:01:35.108Z,21.65
2022-10-23T12:02:35.118Z,21.65
2022-10-23T12:03:35.067Z,21.67
2022-10-23T12:04:35.059Z,21.56
2022-10-23T12:05:35.069Z,21.56
2022-10-23T12:06:35.096Z,21.37
2022-10-23T12:07:35.078Z,21.43
2022-10-23T12:08:35.085Z,21.42
2022-10-23T12:09:35.099Z,21.34
2022-10-23T12:10:35.091Z,21.42
2022-10-23T12:11:35.107Z,21.35
2022-10-23T12:12:35.102Z,21.38
2022-10-23T12:13:35.087Z,21.47
2022-10-23T12:14:35.115Z,21.43
2022-10-23T12:15:35.105Z,21.25
2022-10-23T12:16:35.104Z,21.28
2022-10-23T12:17:35.116Z,21.16
2022-10-23T12:18:35.129Z,21.10
2022-10-23T12:19:35.123Z,21.06
2022-10-23T12:20:35.225Z,20.95
2022-10-23T12:21:35.155Z,20.92
2022-10-23T12:23:35.166Z,20.85
2022-10-23T12:24:35.134Z,20.77
2022-10-23T12:25:35.145Z,20.72
2022-10-23T12:26:35.147Z,20.67
2022-10-23T12:27:35.169Z,20.55
2022-10-23T12:28:35.203Z,20.57
2022-10-23T12:29:35.171Z,20.54
2022-10-23T12:30:35.164Z,20.57
2022-10-23T12:31:35.173Z,20.57
2022-10-23T12:32:35.152Z,20.48
2022-10-23T12:33:35.167Z,20.41
2022-10-23T12:34:35.185Z,20.47
2022-10-23T12:35:35.172Z,20.47
2022-10-23T12:36:35.188Z,20.39
2022-10-23T12:37:35.177Z,20.39
2022-10-23T12:38:35.695Z,20.33
2022-10-23T12:39:35.208Z,20.28
2022-10-23T12:40:35.209Z,20.14
2022-10-23T12:41:35.198Z,20.16
2022-10-23T12:42:35.220Z,20.11
2022-10-23T12:43:35.419Z,20.16
2022-10-23T12:44:35.207Z,20.20
2022-10-23T12:45:35.213Z,20.26
2022-10-23T12:46:35.217Z,20.20
2022-10-23T12:47:35.252Z,20.28
2022-10-23T12:48:35.229Z,20.21
2022-10-23T12:49:35.201Z,20.17
2022-10-23T12:50:35.250Z,20.31
2022-10-23T12:51:35.245Z,20.20
2022-10-23T12:52:35.222Z,20.17
2022-10-23T12:53:35.233Z,20.24
2022-10-23T12:54:35.227Z,20.18
2022-10-23T12:55:36.136Z,20.17
2022-10-23T12:56:35.460Z,20.11
2022-10-23T12:57:35.233Z,20.13
2022-10-23T12:58:35.254Z,20.08